Startpagina
METAR-TAF:

METAR-TAF

Vliegvelden :

Quelimane, Mozambique

breedte: 17-53S, lengte: 036-53E, hoogte: 6 m

Actueel weer

Dit bericht is 1 uur en het 22 minuten geleden gemaakt, om 05:00 UTC
Wind 7 kt uit het zuiden, variërend tussen het oostzuidoosten en het zuidzuidwesten
Temperatuur 26°C
Vochtigheid 79%
Druk 1018 hPa
Zicht 10 km of meer
Verspreide wolken op 2000 ft
Verspreide wolken op 10000 ft

METAR: FQQL 280500Z 17007KT 120V210 9999 SCT020 SCT100 26/22 Q1018

Tijdstip: 08:22 (06:22 UTC)

Verwachting

Dit bericht is 2 uur en het 22 minuten geleden gemaakt, om 04:00 UTC
Verwachting geldig van 28 om 06 UTC tot 29 om 06 UTC
Wind 10 kt uit het zuidzuidoosten
Zicht 10 km of meer
Weinig wolken op 2000 ft
Wijzigt naar
van 28 om 12 UTC tot 28 om 14 UTC
Wind 10 kt uit het oosten
Gebroken wolken op 2000 ft
Wijzigt naar
van 28 om 18 UTC tot 28 om 20 UTC
Wind 12 kt uit het westzuidwesten

TAF: FQQL 280400Z 2806/2906 16010KT 9999 FEW020 TX30/2813Z TN21/2903Z BECMG 2812/2814 10010KT BKN020 BECMG 2818/2820 24012KT

Waarnemingen en weersverwachtingen van meer dan 4000 vliegvelden (METAR en TAF).

De beschikbare stations zijn de gele en rode punten op de kaart.

Ga met uw muis naar het station om de naam te zien.

Klik dan om waarnemingen en weersverwachtingen te zien.

kaart wijzigen: klik op de groene knoppen met een zwart kruis om in te zoomen, op de groene knop met een streepje om uit te zoomen of op de groene pijlen voor aangrenzende kaarten.


METAR-TAF: